sensor_id;sensor_type;location;lat;lon;timestamp;pressure;altitude;pressure_sealevel;temperature;humidity
59168;BME280;44948;55.046;73.266;2023-03-20T00:02:21;102203.63;;;-15.38;60.68
59168;BME280;44948;55.046;73.266;2023-03-20T00:05:25;102192.69;;;-15.39;60.91
59168;BME280;44948;55.046;73.266;2023-03-20T00:08:36;102175.56;;;-15.57;60.90
59168;BME280;44948;55.046;73.266;2023-03-20T00:11:54;102204.19;;;-15.42;61.17
59168;BME280;44948;55.046;73.266;2023-03-20T00:14:59;102193.56;;;-15.38;61.00
59168;BME280;44948;55.046;73.266;2023-03-20T00:18:20;102190.47;;;-15.34;61.70
59168;BME280;44948;55.046;73.266;2023-03-20T00:21:24;102192.63;;;-15.27;61.13
59168;BME280;44948;55.046;73.266;2023-03-20T00:24:27;102186.03;;;-15.25;61.24
59168;BME280;44948;55.046;73.266;2023-03-20T00:27:29;102183.50;;;-15.25;61.45
59168;BME280;44948;55.046;73.266;2023-03-20T00:30:32;102167.53;;;-15.39;61.42
59168;BME280;44948;55.046;73.266;2023-03-20T00:33:34;102189.69;;;-15.20;61.24
59168;BME280;44948;55.046;73.266;2023-03-20T00:36:40;102186.31;;;-15.20;61.42
59168;BME280;44948;55.046;73.266;2023-03-20T00:39:42;102181.38;;;-15.19;61.13
59168;BME280;44948;55.046;73.266;2023-03-20T00:42:48;102187.38;;;-15.17;61.40
59168;BME280;44948;55.046;73.266;2023-03-20T00:45:52;102186.78;;;-15.13;61.27
59168;BME280;44948;55.046;73.266;2023-03-20T00:48:54;102176.53;;;-15.16;61.51
59168;BME280;44948;55.046;73.266;2023-03-20T00:51:58;102169.75;;;-15.17;61.36
59168;BME280;44948;55.046;73.266;2023-03-20T00:55:01;102182.16;;;-15.07;61.24
59168;BME280;44948;55.046;73.266;2023-03-20T00:58:14;102177.13;;;-15.07;61.53
59168;BME280;44948;55.046;73.266;2023-03-20T01:01:17;102180.19;;;-15.11;61.33
59168;BME280;44948;55.046;73.266;2023-03-20T01:04:20;102181.56;;;-15.03;61.78
59168;BME280;44948;55.046;73.266;2023-03-20T01:07:28;102175.75;;;-15.02;61.59
59168;BME280;44948;55.046;73.266;2023-03-20T01:10:31;102157.94;;;-15.05;61.56
59168;BME280;44948;55.046;73.266;2023-03-20T01:13:34;102169.75;;;-14.90;61.65
59168;BME280;44948;55.046;73.266;2023-03-20T01:16:40;102177.31;;;-14.90;61.48
59168;BME280;44948;55.046;73.266;2023-03-20T01:19:42;102161.88;;;-14.95;61.52
59168;BME280;44948;55.046;73.266;2023-03-20T01:22:50;102176.53;;;-14.89;61.70
59168;BME280;44948;55.046;73.266;2023-03-20T01:25:58;102168.19;;;-14.88;61.88
59168;BME280;44948;55.046;73.266;2023-03-20T01:29:02;102166.28;;;-14.92;61.88
59168;BME280;44948;55.046;73.266;2023-03-20T01:32:15;102169.75;;;-14.90;62.17
59168;BME280;44948;55.046;73.266;2023-03-20T01:35:23;102170.13;;;-14.84;62.17
59168;BME280;44948;55.046;73.266;2023-03-20T01:38:27;102160.03;;;-14.84;62.11
59168;BME280;44948;55.046;73.266;2023-03-20T01:41:39;102177.84;;;-14.68;62.26
59168;BME280;44948;55.046;73.266;2023-03-20T01:44:47;102177.72;;;-14.56;62.26
59168;BME280;44948;55.046;73.266;2023-03-20T01:47:50;102169.75;;;-14.49;61.79
59168;BME280;44948;55.046;73.266;2023-03-20T01:50:54;102162.16;;;-14.36;61.98
59168;BME280;44948;55.046;73.266;2023-03-20T01:57:21;102172.47;;;-14.18;61.87
59168;BME280;44948;55.046;73.266;2023-03-20T02:00:24;102162.91;;;-14.09;61.67
59168;BME280;44948;55.046;73.266;2023-03-20T02:03:27;102163.06;;;-14.06;62.07
59168;BME280;44948;55.046;73.266;2023-03-20T02:06:48;102172.41;;;-13.90;62.02
59168;BME280;44948;55.046;73.266;2023-03-20T02:10:11;102165.88;;;-13.87;61.68
59168;BME280;44948;55.046;73.266;2023-03-20T02:13:28;102157.72;;;-13.83;61.84
59168;BME280;44948;55.046;73.266;2023-03-20T02:16:32;102166.25;;;-13.66;61.39
59168;BME280;44948;55.046;73.266;2023-03-20T02:30:21;102169.66;;;-13.51;61.29
59168;BME280;44948;55.046;73.266;2023-03-20T02:37:21;102183.38;;;-13.31;61.19
59168;BME280;44948;55.046;73.266;2023-03-20T02:40:57;102179.81;;;-13.20;61.19
59168;BME280;44948;55.046;73.266;2023-03-20T02:47:46;102173.13;;;-12.88;60.64
59168;BME280;44948;55.046;73.266;2023-03-20T03:01:13;102173.81;;;-12.27;59.89
59168;BME280;44948;55.046;73.266;2023-03-20T03:04:22;102165.28;;;-12.13;60.03
59168;BME280;44948;55.046;73.266;2023-03-20T03:07:29;102167.25;;;-11.91;59.55
59168;BME280;44948;55.046;73.266;2023-03-20T03:10:46;102162.25;;;-11.73;59.79
59168;BME280;44948;55.046;73.266;2023-03-20T03:13:55;102144.38;;;-11.58;59.69
59168;BME280;44948;55.046;73.266;2023-03-20T03:17:00;102149.84;;;-11.33;59.20
59168;BME280;44948;55.046;73.266;2023-03-20T03:20:13;102164.97;;;-11.35;59.13
59168;BME280;44948;55.046;73.266;2023-03-20T03:23:31;102162.44;;;-11.35;58.83
59168;BME280;44948;55.046;73.266;2023-03-20T03:26:38;102161.94;;;-11.27;58.44
59168;BME280;44948;55.046;73.266;2023-03-20T03:29:55;102143.66;;;-11.40;58.37
59168;BME280;44948;55.046;73.266;2023-03-20T03:39:53;102163.50;;;-10.94;57.65
59168;BME280;44948;55.046;73.266;2023-03-20T03:46:36;102159.13;;;-10.79;57.65
59168;BME280;44948;55.046;73.266;2023-03-20T03:49:50;102163.84;;;-10.68;57.19
59168;BME280;44948;55.046;73.266;2023-03-20T03:53:00;102164.06;;;-10.45;57.28
59168;BME280;44948;55.046;73.266;2023-03-20T03:56:07;102155.09;;;-10.19;57.10
59168;BME280;44948;55.046;73.266;2023-03-20T03:59:32;102151.59;;;-10.01;56.80
59168;BME280;44948;55.046;73.266;2023-03-20T04:02:37;102106.66;;;-10.04;56.56
59168;BME280;44948;55.046;73.266;2023-03-20T04:05:42;102144.34;;;-9.52;56.15
59168;BME280;44948;55.046;73.266;2023-03-20T04:08:46;102137.66;;;-9.50;55.12
59168;BME280;44948;55.046;73.266;2023-03-20T04:11:51;102130.97;;;-9.48;55.41
59168;BME280;44948;55.046;73.266;2023-03-20T04:15:05;102122.69;;;-9.22;55.49
59168;BME280;44948;55.046;73.266;2023-03-20T04:18:18;102133.72;;;-8.76;55.14
59168;BME280;44948;55.046;73.266;2023-03-20T04:21:22;102133.50;;;-8.38;54.67
59168;BME280;44948;55.046;73.266;2023-03-20T04:24:26;102126.97;;;-8.06;53.56
59168;BME280;44948;55.046;73.266;2023-03-20T04:27:39;102118.72;;;-8.22;52.53
59168;BME280;44948;55.046;73.266;2023-03-20T04:30:58;102107.63;;;-8.48;52.90
59168;BME280;44948;55.046;73.266;2023-03-20T04:34:11;102132.97;;;-8.28;52.52
59168;BME280;44948;55.046;73.266;2023-03-20T04:37:42;102132.22;;;-8.01;51.70
59168;BME280;44948;55.046;73.266;2023-03-20T04:40:46;102123.09;;;-7.94;52.23
59168;BME280;44948;55.046;73.266;2023-03-20T04:43:49;102101.53;;;-7.80;51.84
59168;BME280;44948;55.046;73.266;2023-03-20T04:46:51;102107.16;;;-8.14;50.91
59168;BME280;44948;55.046;73.266;2023-03-20T04:50:00;102115.13;;;-8.05;51.36
59168;BME280;44948;55.046;73.266;2023-03-20T04:53:04;102107.53;;;-7.78;51.28
59168;BME280;44948;55.046;73.266;2023-03-20T04:56:08;102099.13;;;-7.50;51.16
59168;BME280;44948;55.046;73.266;2023-03-20T04:59:16;102103.16;;;-7.30;50.57
59168;BME280;44948;55.046;73.266;2023-03-20T05:02:25;102096.25;;;-6.76;50.45
59168;BME280;44948;55.046;73.266;2023-03-20T05:05:29;102110.31;;;-6.60;49.59
59168;BME280;44948;55.046;73.266;2023-03-20T05:08:42;102096.75;;;-6.59;49.10
59168;BME280;44948;55.046;73.266;2023-03-20T05:11:51;102099.53;;;-6.80;47.51
59168;BME280;44948;55.046;73.266;2023-03-20T05:15:14;102090.00;;;-6.57;48.11
59168;BME280;44948;55.046;73.266;2023-03-20T05:18:42;102068.13;;;-6.17;48.66
59168;BME280;44948;55.046;73.266;2023-03-20T05:21:50;102083.84;;;-5.33;48.57
59168;BME280;44948;55.046;73.266;2023-03-20T05:25:16;102071.47;;;-5.50;46.05
59168;BME280;44948;55.046;73.266;2023-03-20T05:28:31;102070.28;;;-5.65;46.73
59168;BME280;44948;55.046;73.266;2023-03-20T05:31:50;102070.75;;;-5.07;46.53
59168;BME280;44948;55.046;73.266;2023-03-20T05:35:11;102052.97;;;-4.60;46.93
59168;BME280;44948;55.046;73.266;2023-03-20T05:38:35;102038.84;;;-4.84;44.19
59168;BME280;44948;55.046;73.266;2023-03-20T05:41:56;102055.91;;;-5.22;44.94
59168;BME280;44948;55.046;73.266;2023-03-20T05:45:15;102065.00;;;-4.97;45.55
59168;BME280;44948;55.046;73.266;2023-03-20T05:48:40;102059.06;;;-4.96;44.91
59168;BME280;44948;55.046;73.266;2023-03-20T05:52:02;102061.72;;;-4.91;44.63
59168;BME280;44948;55.046;73.266;2023-03-20T05:55:30;102055.41;;;-4.67;45.37
59168;BME280;44948;55.046;73.266;2023-03-20T05:59:06;102046.16;;;-4.15;44.85
59168;BME280;44948;55.046;73.266;2023-03-20T06:02:37;102049.31;;;-4.28;44.16
59168;BME280;44948;55.046;73.266;2023-03-20T06:05:59;102044.09;;;-4.78;44.00
59168;BME280;44948;55.046;73.266;2023-03-20T06:09:03;102056.03;;;-4.77;44.35
59168;BME280;44948;55.046;73.266;2023-03-20T06:12:06;102043.72;;;-4.96;43.78
59168;BME280;44948;55.046;73.266;2023-03-20T06:15:18;102052.16;;;-5.38;44.03
59168;BME280;44948;55.046;73.266;2023-03-20T06:18:29;102033.00;;;-5.55;44.89
59168;BME280;44948;55.046;73.266;2023-03-20T06:21:31;102043.75;;;-5.34;44.71
59168;BME280;44948;55.046;73.266;2023-03-20T06:24:44;102048.16;;;-5.27;44.51
59168;BME280;44948;55.046;73.266;2023-03-20T06:27:50;102046.72;;;-5.15;44.69
59168;BME280;44948;55.046;73.266;2023-03-20T06:30:52;102043.97;;;-4.84;44.80
59168;BME280;44948;55.046;73.266;2023-03-20T06:34:02;102046.91;;;-4.66;44.75
59168;BME280;44948;55.046;73.266;2023-03-20T06:37:11;102048.84;;;-4.06;44.77
59168;BME280;44948;55.046;73.266;2023-03-20T06:40:14;102026.16;;;-4.34;43.64
59168;BME280;44948;55.046;73.266;2023-03-20T06:43:17;102042.00;;;-4.07;44.20
59168;BME280;44948;55.046;73.266;2023-03-20T06:46:25;102046.16;;;-4.13;44.37
59168;BME280;44948;55.046;73.266;2023-03-20T06:49:28;102036.44;;;-3.83;44.33
59168;BME280;44948;55.046;73.266;2023-03-20T06:52:30;102039.66;;;-3.94;43.92
59168;BME280;44948;55.046;73.266;2023-03-20T06:56:02;102043.41;;;-3.74;44.09
59168;BME280;44948;55.046;73.266;2023-03-20T06:59:05;102031.13;;;-3.93;43.71
59168;BME280;44948;55.046;73.266;2023-03-20T07:02:13;102039.88;;;-3.82;44.08
59168;BME280;44948;55.046;73.266;2023-03-20T07:05:16;102038.47;;;-3.63;44.13
59168;BME280;44948;55.046;73.266;2023-03-20T07:08:19;102032.66;;;-4.03;43.72
59168;BME280;44948;55.046;73.266;2023-03-20T07:11:24;102013.16;;;-3.96;44.69
59168;BME280;44948;55.046;73.266;2023-03-20T07:14:34;102030.00;;;-4.11;44.30
59168;BME280;44948;55.046;73.266;2023-03-20T07:17:39;102017.75;;;-4.27;45.24
59168;BME280;44948;55.046;73.266;2023-03-20T07:20:45;102023.09;;;-4.15;45.11
59168;BME280;44948;55.046;73.266;2023-03-20T07:23:48;102005.19;;;-4.12;44.94
59168;BME280;44948;55.046;73.266;2023-03-20T07:27:01;102006.28;;;-3.97;44.96
59168;BME280;44948;55.046;73.266;2023-03-20T07:30:05;102023.50;;;-3.89;44.97
59168;BME280;44948;55.046;73.266;2023-03-20T07:33:16;102022.22;;;-4.15;44.68
59168;BME280;44948;55.046;73.266;2023-03-20T07:36:25;102012.88;;;-4.12;44.68
59168;BME280;44948;55.046;73.266;2023-03-20T07:39:28;102026.81;;;-3.97;44.25
59168;BME280;44948;55.046;73.266;2023-03-20T07:42:53;102021.06;;;-3.83;44.08
59168;BME280;44948;55.046;73.266;2023-03-20T07:46:28;101999.44;;;-3.98;44.26
59168;BME280;44948;55.046;73.266;2023-03-20T07:49:30;102000.28;;;-3.99;43.08
59168;BME280;44948;55.046;73.266;2023-03-20T07:52:33;102001.72;;;-4.15;42.32
59168;BME280;44948;55.046;73.266;2023-03-20T07:55:36;102005.13;;;-4.16;41.61
59168;BME280;44948;55.046;73.266;2023-03-20T07:58:38;101998.66;;;-3.94;40.89
59168;BME280;44948;55.046;73.266;2023-03-20T08:01:41;101988.34;;;-3.97;41.48
59168;BME280;44948;55.046;73.266;2023-03-20T08:04:44;101982.34;;;-3.99;40.47
59168;BME280;44948;55.046;73.266;2023-03-20T08:07:57;101989.06;;;-4.05;40.62
59168;BME280;44948;55.046;73.266;2023-03-20T08:11:00;101983.25;;;-3.96;40.13
59168;BME280;44948;55.046;73.266;2023-03-20T08:14:03;101978.22;;;-3.88;40.57
59168;BME280;44948;55.046;73.266;2023-03-20T08:17:05;101983.34;;;-3.90;39.30
59168;BME280;44948;55.046;73.266;2023-03-20T08:20:08;101964.81;;;-4.25;38.52
59168;BME280;44948;55.046;73.266;2023-03-20T08:23:10;101955.28;;;-4.35;38.97
59168;BME280;44948;55.046;73.266;2023-03-20T08:26:13;101969.91;;;-4.28;39.36
59168;BME280;44948;55.046;73.266;2023-03-20T08:29:15;101970.78;;;-4.26;40.31
59168;BME280;44948;55.046;73.266;2023-03-20T08:32:20;101956.09;;;-4.36;39.12
59168;BME280;44948;55.046;73.266;2023-03-20T08:35:22;101947.38;;;-4.47;39.88
59168;BME280;44948;55.046;73.266;2023-03-20T08:38:25;101953.88;;;-4.18;40.50
59168;BME280;44948;55.046;73.266;2023-03-20T08:41:28;101938.75;;;-4.01;40.94
59168;BME280;44948;55.046;73.266;2023-03-20T08:44:35;101944.88;;;-3.90;39.02
59168;BME280;44948;55.046;73.266;2023-03-20T08:47:38;101925.25;;;-3.88;39.25
59168;BME280;44948;55.046;73.266;2023-03-20T08:50:50;101933.88;;;-3.84;39.23
59168;BME280;44948;55.046;73.266;2023-03-20T08:53:53;101926.28;;;-3.78;39.00
59168;BME280;44948;55.046;73.266;2023-03-20T08:56:55;101929.25;;;-4.07;38.30
59168;BME280;44948;55.046;73.266;2023-03-20T08:59:58;101924.88;;;-4.14;38.66
59168;BME280;44948;55.046;73.266;2023-03-20T09:03:02;101903.91;;;-4.43;37.15
59168;BME280;44948;55.046;73.266;2023-03-20T09:06:12;101912.16;;;-4.59;36.08
59168;BME280;44948;55.046;73.266;2023-03-20T09:09:19;101910.19;;;-4.74;36.80
59168;BME280;44948;55.046;73.266;2023-03-20T09:12:27;101907.75;;;-4.68;36.73
59168;BME280;44948;55.046;73.266;2023-03-20T09:15:34;101894.19;;;-4.62;37.05
59168;BME280;44948;55.046;73.266;2023-03-20T09:18:37;101899.38;;;-4.57;36.83
59168;BME280;44948;55.046;73.266;2023-03-20T09:21:40;101870.38;;;-4.56;37.68
59168;BME280;44948;55.046;73.266;2023-03-20T09:24:42;101894.81;;;-4.24;38.04
59168;BME280;44948;55.046;73.266;2023-03-20T09:27:45;101893.50;;;-4.00;38.36
59168;BME280;44948;55.046;73.266;2023-03-20T09:30:47;101877.97;;;-4.10;37.77
59168;BME280;44948;55.046;73.266;2023-03-20T09:33:50;101884.72;;;-4.16;37.87
59168;BME280;44948;55.046;73.266;2023-03-20T09:36:52;101877.25;;;-4.01;38.86
59168;BME280;44948;55.046;73.266;2023-03-20T09:39:54;101873.09;;;-3.91;39.03
59168;BME280;44948;55.046;73.266;2023-03-20T09:43:16;101876.47;;;-3.95;38.63
59168;BME280;44948;55.046;73.266;2023-03-20T09:46:44;101835.75;;;-4.35;37.04
59168;BME280;44948;55.046;73.266;2023-03-20T09:53:26;101871.56;;;-4.36;37.49
59168;BME280;44948;55.046;73.266;2023-03-20T09:56:30;101851.88;;;-4.40;37.95
59168;BME280;44948;55.046;73.266;2023-03-20T09:59:37;101840.63;;;-4.51;38.01
59168;BME280;44948;55.046;73.266;2023-03-20T10:06:02;101850.31;;;-4.32;37.37
59168;BME280;44948;55.046;73.266;2023-03-20T10:09:24;101831.50;;;-4.34;39.22
59168;BME280;44948;55.046;73.266;2023-03-20T10:22:32;101824.97;;;-4.14;40.28
59168;BME280;44948;55.046;73.266;2023-03-20T10:25:46;101826.72;;;-4.10;39.34
59168;BME280;44948;55.046;73.266;2023-03-20T10:29:10;101818.56;;;-4.40;37.60
59168;BME280;44948;55.046;73.266;2023-03-20T10:42:45;101797.81;;;-4.01;39.80
59168;BME280;44948;55.046;73.266;2023-03-20T10:46:42;101803.72;;;-4.05;39.47
59168;BME280;44948;55.046;73.266;2023-03-20T10:49:45;101801.09;;;-4.10;39.85
59168;BME280;44948;55.046;73.266;2023-03-20T10:52:50;101783.13;;;-4.13;40.11
59168;BME280;44948;55.046;73.266;2023-03-20T10:55:56;101804.81;;;-4.47;39.67
59168;BME280;44948;55.046;73.266;2023-03-20T10:59:06;101795.44;;;-4.46;40.79
59168;BME280;44948;55.046;73.266;2023-03-20T11:02:11;101787.84;;;-4.40;40.63
59168;BME280;44948;55.046;73.266;2023-03-20T11:05:32;101789.28;;;-4.59;40.34
59168;BME280;44948;55.046;73.266;2023-03-20T11:08:39;101773.69;;;-4.73;40.97
59168;BME280;44948;55.046;73.266;2023-03-20T11:12:00;101725.09;;;-5.22;41.15
59168;BME280;44948;55.046;73.266;2023-03-20T11:18:15;101761.88;;;-5.17;41.92
59168;BME280;44948;55.046;73.266;2023-03-20T11:21:30;101763.38;;;-5.29;41.90
59168;BME280;44948;55.046;73.266;2023-03-20T11:24:46;101760.22;;;-5.14;41.91
59168;BME280;44948;55.046;73.266;2023-03-20T11:27:53;101755.50;;;-5.39;42.06
59168;BME280;44948;55.046;73.266;2023-03-20T11:31:40;101751.34;;;-5.36;42.58
59168;BME280;44948;55.046;73.266;2023-03-20T11:34:43;101764.13;;;-5.34;42.25
59168;BME280;44948;55.046;73.266;2023-03-20T11:37:49;101757.66;;;-5.15;42.36
59168;BME280;44948;55.046;73.266;2023-03-20T11:40:52;101755.09;;;-5.15;41.54
59168;BME280;44948;55.046;73.266;2023-03-20T11:43:54;101744.47;;;-5.37;42.59
59168;BME280;44948;55.046;73.266;2023-03-20T11:50:31;101743.84;;;-5.70;42.24
59168;BME280;44948;55.046;73.266;2023-03-20T11:54:06;101738.47;;;-5.86;43.26
59168;BME280;44948;55.046;73.266;2023-03-20T11:57:42;101733.25;;;-5.89;43.13
59168;BME280;44948;55.046;73.266;2023-03-20T12:00:49;101728.25;;;-5.86;43.60
59168;BME280;44948;55.046;73.266;2023-03-20T12:04:01;101717.88;;;-5.92;43.76
59168;BME280;44948;55.046;73.266;2023-03-20T12:10:16;101708.38;;;-6.00;43.91
59168;BME280;44948;55.046;73.266;2023-03-20T12:13:24;101711.31;;;-6.21;43.88
59168;BME280;44948;55.046;73.266;2023-03-20T12:16:33;101707.00;;;-6.24;44.49
59168;BME280;44948;55.046;73.266;2023-03-20T12:19:40;101703.28;;;-6.39;44.72
59168;BME280;44948;55.046;73.266;2023-03-20T12:26:11;101715.22;;;-6.38;43.98
59168;BME280;44948;55.046;73.266;2023-03-20T12:29:35;101714.13;;;-6.51;44.38
59168;BME280;44948;55.046;73.266;2023-03-20T12:32:53;101711.38;;;-6.59;44.42
59168;BME280;44948;55.046;73.266;2023-03-20T12:36:00;101714.91;;;-6.54;44.95
59168;BME280;44948;55.046;73.266;2023-03-20T12:39:05;101698.44;;;-6.68;45.00
59168;BME280;44948;55.046;73.266;2023-03-20T12:45:39;101702.69;;;-6.67;45.31
59168;BME280;44948;55.046;73.266;2023-03-20T12:48:50;101702.00;;;-6.60;46.05
59168;BME280;44948;55.046;73.266;2023-03-20T12:55:19;101702.16;;;-6.91;46.47
59168;BME280;44948;55.046;73.266;2023-03-20T12:58:34;101695.38;;;-6.89;47.12
59168;BME280;44948;55.046;73.266;2023-03-20T13:01:55;101677.06;;;-7.11;47.71
59168;BME280;44948;55.046;73.266;2023-03-20T13:18:55;101686.13;;;-7.22;49.59
59168;BME280;44948;55.046;73.266;2023-03-20T13:22:07;101684.34;;;-7.26;50.26
59168;BME280;44948;55.046;73.266;2023-03-20T13:25:46;101656.81;;;-7.39;50.60
59168;BME280;44948;55.046;73.266;2023-03-20T13:39:43;101679.25;;;-7.26;52.08
59168;BME280;44948;55.046;73.266;2023-03-20T13:42:54;101678.34;;;-7.28;52.37
59168;BME280;44948;55.046;73.266;2023-03-20T13:46:05;101662.91;;;-7.34;52.74
59168;BME280;44948;55.046;73.266;2023-03-20T13:52:33;101676.44;;;-7.37;53.37
59168;BME280;44948;55.046;73.266;2023-03-20T13:56:02;101676.94;;;-7.51;53.63
59168;BME280;44948;55.046;73.266;2023-03-20T14:05:30;101658.88;;;-7.59;54.36
59168;BME280;44948;55.046;73.266;2023-03-20T14:08:52;101667.53;;;-7.54;54.59
59168;BME280;44948;55.046;73.266;2023-03-20T14:12:00;101671.56;;;-7.60;55.59
59168;BME280;44948;55.046;73.266;2023-03-20T14:15:03;101656.84;;;-7.72;56.13
59168;BME280;44948;55.046;73.266;2023-03-20T14:18:13;101662.91;;;-7.69;56.15
59168;BME280;44948;55.046;73.266;2023-03-20T14:21:22;101663.47;;;-7.79;56.62
59168;BME280;44948;55.046;73.266;2023-03-20T14:24:26;101659.19;;;-7.80;56.90
59168;BME280;44948;55.046;73.266;2023-03-20T14:27:36;101645.63;;;-7.79;56.46
59168;BME280;44948;55.046;73.266;2023-03-20T14:31:21;101660.78;;;-7.85;57.12
59168;BME280;44948;55.046;73.266;2023-03-20T14:34:24;101650.63;;;-7.83;57.64
59168;BME280;44948;55.046;73.266;2023-03-20T14:40:42;101648.03;;;-7.85;57.99
59168;BME280;44948;55.046;73.266;2023-03-20T14:47:52;101637.34;;;-8.05;58.10
59168;BME280;44948;55.046;73.266;2023-03-20T14:54:28;101644.16;;;-8.04;58.57
59168;BME280;44948;55.046;73.266;2023-03-20T14:57:32;101641.56;;;-8.05;58.51
59168;BME280;44948;55.046;73.266;2023-03-20T15:00:45;101619.22;;;-8.15;58.34
59168;BME280;44948;55.046;73.266;2023-03-20T15:03:51;101606.53;;;-8.14;58.79
59168;BME280;44948;55.046;73.266;2023-03-20T15:06:59;101616.63;;;-8.17;59.54
59168;BME280;44948;55.046;73.266;2023-03-20T15:10:04;101617.50;;;-8.16;59.63
59168;BME280;44948;55.046;73.266;2023-03-20T15:13:07;101622.31;;;-8.25;60.14
59168;BME280;44948;55.046;73.266;2023-03-20T15:16:12;101598.28;;;-8.37;60.50
59168;BME280;44948;55.046;73.266;2023-03-20T15:19:18;101612.06;;;-8.29;60.66
59168;BME280;44948;55.046;73.266;2023-03-20T15:22:21;101619.81;;;-8.24;60.15
59168;BME280;44948;55.046;73.266;2023-03-20T15:25:32;101612.09;;;-8.27;60.44
59168;BME280;44948;55.046;73.266;2023-03-20T15:28:42;101601.81;;;-8.32;60.98
59168;BME280;44948;55.046;73.266;2023-03-20T15:31:53;101589.09;;;-8.32;60.76
59168;BME280;44948;55.046;73.266;2023-03-20T15:34:56;101597.63;;;-8.30;61.22
59168;BME280;44948;55.046;73.266;2023-03-20T15:38:04;101592.75;;;-8.22;61.01
59168;BME280;44948;55.046;73.266;2023-03-20T15:41:24;101585.78;;;-8.28;61.39
59168;BME280;44948;55.046;73.266;2023-03-20T15:44:34;101584.91;;;-8.30;62.12
59168;BME280;44948;55.046;73.266;2023-03-20T15:47:47;101583.31;;;-8.24;61.87
59168;BME280;44948;55.046;73.266;2023-03-20T15:50:57;101566.19;;;-8.32;62.39
59168;BME280;44948;55.046;73.266;2023-03-20T15:54:01;101559.53;;;-8.27;62.43
59168;BME280;44948;55.046;73.266;2023-03-20T15:57:12;101556.00;;;-8.32;62.49
59168;BME280;44948;55.046;73.266;2023-03-20T16:00:41;101568.72;;;-8.32;61.92
59168;BME280;44948;55.046;73.266;2023-03-20T16:03:45;101560.59;;;-8.50;62.46
59168;BME280;44948;55.046;73.266;2023-03-20T16:06:52;101542.84;;;-8.48;62.33
59168;BME280;44948;55.046;73.266;2023-03-20T16:09:54;101563.50;;;-8.38;62.19
59168;BME280;44948;55.046;73.266;2023-03-20T16:12:57;101549.69;;;-8.46;62.13
59168;BME280;44948;55.046;73.266;2023-03-20T16:16:01;101562.78;;;-8.32;61.77
59168;BME280;44948;55.046;73.266;2023-03-20T16:19:12;101562.81;;;-8.31;61.46
59168;BME280;44948;55.046;73.266;2023-03-20T16:22:30;101546.28;;;-8.46;61.46
59168;BME280;44948;55.046;73.266;2023-03-20T16:25:35;101536.06;;;-8.48;61.48
59168;BME280;44948;55.046;73.266;2023-03-20T16:28:58;101550.25;;;-8.56;61.24
59168;BME280;44948;55.046;73.266;2023-03-20T16:32:06;101561.41;;;-8.51;61.39
59168;BME280;44948;55.046;73.266;2023-03-20T16:35:42;101557.88;;;-8.56;61.14
59168;BME280;44948;55.046;73.266;2023-03-20T16:38:54;101528.38;;;-8.81;60.95
59168;BME280;44948;55.046;73.266;2023-03-20T16:42:21;101541.25;;;-8.75;60.65
59168;BME280;44948;55.046;73.266;2023-03-20T16:45:30;101551.28;;;-8.79;61.23
59168;BME280;44948;55.046;73.266;2023-03-20T16:48:35;101547.97;;;-8.77;60.54
59168;BME280;44948;55.046;73.266;2023-03-20T16:51:42;101545.03;;;-8.91;61.22
59168;BME280;44948;55.046;73.266;2023-03-20T16:54:47;101530.59;;;-8.92;61.03
59168;BME280;44948;55.046;73.266;2023-03-20T16:57:53;101524.63;;;-8.94;60.96
59168;BME280;44948;55.046;73.266;2023-03-20T17:01:03;101525.06;;;-9.07;60.80
59168;BME280;44948;55.046;73.266;2023-03-20T17:04:33;101515.59;;;-9.12;60.73
59168;BME280;44948;55.046;73.266;2023-03-20T17:07:36;101509.56;;;-9.16;60.72
59168;BME280;44948;55.046;73.266;2023-03-20T17:10:43;101510.56;;;-9.11;60.89
59168;BME280;44948;55.046;73.266;2023-03-20T17:13:59;101502.78;;;-9.17;60.98
59168;BME280;44948;55.046;73.266;2023-03-20T17:17:02;101497.38;;;-9.28;60.64
59168;BME280;44948;55.046;73.266;2023-03-20T17:20:05;101499.81;;;-9.31;60.52
59168;BME280;44948;55.046;73.266;2023-03-20T17:23:13;101491.03;;;-9.42;60.93
59168;BME280;44948;55.046;73.266;2023-03-20T17:26:17;101458.22;;;-9.64;60.78
59168;BME280;44948;55.046;73.266;2023-03-20T17:29:20;101481.94;;;-9.64;61.00
59168;BME280;44948;55.046;73.266;2023-03-20T17:32:22;101488.91;;;-9.57;60.95
59168;BME280;44948;55.046;73.266;2023-03-20T17:35:36;101496.19;;;-9.69;60.83
59168;BME280;44948;55.046;73.266;2023-03-20T17:38:38;101490.16;;;-9.72;60.78
59168;BME280;44948;55.046;73.266;2023-03-20T17:41:51;101495.34;;;-9.68;60.62
59168;BME280;44948;55.046;73.266;2023-03-20T17:44:53;101492.59;;;-9.74;60.76
59168;BME280;44948;55.046;73.266;2023-03-20T17:47:56;101490.88;;;-9.75;60.80
59168;BME280;44948;55.046;73.266;2023-03-20T17:51:09;101483.81;;;-9.85;60.53
59168;BME280;44948;55.046;73.266;2023-03-20T17:54:17;101480.06;;;-9.96;60.67
59168;BME280;44948;55.046;73.266;2023-03-20T17:57:33;101481.78;;;-9.95;60.37
59168;BME280;44948;55.046;73.266;2023-03-20T18:00:35;101469.78;;;-10.01;60.36
59168;BME280;44948;55.046;73.266;2023-03-20T18:03:42;101477.25;;;-10.05;60.49
59168;BME280;44948;55.046;73.266;2023-03-20T18:06:50;101458.22;;;-10.18;60.35
59168;BME280;44948;55.046;73.266;2023-03-20T18:09:53;101472.81;;;-10.11;60.73
59168;BME280;44948;55.046;73.266;2023-03-20T18:13:06;101464.25;;;-10.15;60.55
59168;BME280;44948;55.046;73.266;2023-03-20T18:16:20;101456.50;;;-10.19;60.97
59168;BME280;44948;55.046;73.266;2023-03-20T18:19:26;101448.94;;;-10.18;60.78
59168;BME280;44948;55.046;73.266;2023-03-20T18:22:29;101458.41;;;-10.12;60.34
59168;BME280;44948;55.046;73.266;2023-03-20T18:25:34;101464.94;;;-10.20;60.55
59168;BME280;44948;55.046;73.266;2023-03-20T18:28:37;101463.41;;;-10.15;60.37
59168;BME280;44948;55.046;73.266;2023-03-20T18:31:44;101459.00;;;-10.21;60.50